Time;durP1;ratioP1;P1;durP2;ratioP2;P2;SDS_P1;SDS_P2;PMS_P1;PMS_P2;Temp;Humidity;BMP_temperature;BMP_pressure;BME280_temperature;BME280_humidity;BME280_pressure;Samples;Min_cycle;Max_cycle;Signal;HPM_P1;HPM_P2
2023/01/16 00:00:56;;;;;;;11.95;6.28;;;17.50;79.80;;;18.21;45.78;97825.97;5095537;27;20042;-81
2023/01/16 00:03:30;;;;;;;12.98;5.43;;;17.50;79.90;;;18.18;46.01;97817.66;5103358;27;20043;-82
2023/01/16 00:05:56;;;;;;;12.30;6.53;;;17.40;79.70;;;18.14;46.07;97816.75;5110029;27;20035;-82
2023/01/16 00:08:22;;;;;;;12.05;5.63;;;17.50;79.80;;;18.14;46.02;97811.25;5093083;27;20105;-82
2023/01/16 00:10:48;;;;;;;12.13;6.70;;;17.40;79.60;;;18.17;45.65;97814.13;5100430;27;20134;-81
2023/01/16 00:13:15;;;;;;;14.63;6.43;;;17.40;79.60;;;18.09;45.91;97820.56;5096946;27;20035;-81
2023/01/16 00:15:48;;;;;;;12.88;5.97;;;17.40;79.50;;;18.11;45.91;97811.97;5079511;27;20054;-81
2023/01/16 00:18:15;;;;;;;12.13;6.72;;;17.40;79.80;;;18.11;45.67;97810.00;5093162;27;20023;-81
2023/01/16 00:20:41;;;;;;;15.43;6.28;;;17.40;79.70;;;18.15;45.81;97804.63;5096807;27;20047;-81
2023/01/16 00:23:10;;;;;;;11.70;5.55;;;17.40;79.60;;;18.11;45.75;97803.72;5112109;27;20035;-81
2023/01/16 00:25:41;;;;;;;9.52;5.65;;;17.40;79.40;;;18.12;45.83;97802.59;5088934;27;20406;-81
2023/01/16 00:28:11;;;;;;;12.13;6.43;;;17.40;79.50;;;18.11;45.74;97800.97;5078285;27;20043;-81
2023/01/16 00:30:37;;;;;;;11.63;6.72;;;17.40;79.30;;;18.11;45.54;97801.78;5082602;27;20371;-81
2023/01/16 00:33:04;;;;;;;11.25;6.28;;;17.50;79.40;;;18.16;45.72;97798.78;5080250;27;20046;-81
2023/01/16 00:35:30;;;;;;;10.73;6.07;;;17.40;79.70;;;18.19;45.84;97792.63;5064308;27;20039;-81
2023/01/16 00:37:56;;;;;;;14.15;6.60;;;17.50;79.90;;;18.20;46.47;97787.91;5077071;27;20031;-81
2023/01/16 00:40:22;;;;;;;12.88;5.97;;;17.50;80.00;;;18.15;45.77;97793.66;5078501;27;20036;-81
2023/01/16 00:42:48;;;;;;;10.82;5.15;;;17.40;79.60;;;18.13;45.93;97794.00;5075450;27;20050;-81
2023/01/16 00:45:14;;;;;;;12.45;6.00;;;17.50;79.50;;;18.08;45.90;97791.50;5095197;27;20130;-81
2023/01/16 00:47:41;;;;;;;13.32;6.50;;;17.40;79.40;;;18.13;45.80;97798.69;5093096;27;20761;-81
2023/01/16 00:50:08;;;;;;;14.23;6.90;;;17.40;79.50;;;18.15;46.02;97808.19;5078807;27;20039;-81
2023/01/16 00:52:34;;;;;;;12.93;5.78;;;17.40;80.00;;;18.16;46.25;97803.47;5079322;27;20126;-81
2023/01/16 00:55:00;;;;;;;9.75;6.07;;;17.50;80.00;;;18.15;45.83;97801.91;5058707;27;20097;-81
2023/01/16 00:57:27;;;;;;;9.77;5.28;;;17.40;79.80;;;18.11;45.96;97798.22;5076580;27;20049;-81
2023/01/16 00:59:53;;;;;;;13.82;6.03;;;17.40;79.70;;;18.07;45.80;97809.13;5096583;27;20035;-81
2023/01/16 01:02:19;;;;;;;11.32;5.88;;;17.40;79.80;;;18.08;45.78;97809.91;5096556;27;20049;-81
2023/01/16 01:04:45;;;;;;;14.13;6.15;;;17.30;79.50;;;18.06;45.65;97810.25;5111423;27;20035;-81
2023/01/16 01:07:11;;;;;;;14.93;6.13;;;17.30;79.60;;;18.07;45.77;97805.59;5099580;27;20559;-81
2023/01/16 01:09:37;;;;;;;9.68;5.30;;;17.30;79.60;;;18.06;45.68;97802.00;5072538;28;20043;-82
2023/01/16 01:12:03;;;;;;;11.48;5.40;;;17.40;79.50;;;18.03;45.84;97805.47;5074321;27;20046;-81
2023/01/16 01:14:29;;;;;;;13.25;6.18;;;17.30;79.40;;;18.05;45.70;97797.69;5076685;27;20036;-81
2023/01/16 01:16:56;;;;;;;8.45;5.82;;;17.30;79.40;;;18.05;45.62;97792.19;5077644;27;20122;-81
2023/01/16 01:19:21;;;;;;;13.60;6.85;;;17.20;79.50;;;18.02;45.83;97797.59;5110343;27;20402;-81
2023/01/16 01:21:48;;;;;;;9.90;5.28;;;17.20;79.50;;;18.02;45.79;97800.34;5097784;27;20035;-81
2023/01/16 01:24:14;;;;;;;10.70;5.82;;;17.20;79.50;;;18.02;45.48;97787.41;5095216;27;20403;-81
2023/01/16 01:26:40;;;;;;;13.93;5.95;;;17.20;80.40;;;17.99;45.84;97788.91;5054699;27;20083;-81
2023/01/16 01:29:06;;;;;;;11.35;6.55;;;17.20;79.40;;;18.00;45.55;97787.75;5095545;27;20047;-81
2023/01/16 01:31:32;;;;;;;11.60;6.00;;;17.20;79.40;;;18.07;46.16;97775.41;5091903;28;20775;-81
2023/01/16 01:33:58;;;;;;;10.02;4.80;;;17.20;79.90;;;18.12;46.08;97775.16;5091285;28;20037;-81
2023/01/16 01:36:24;;;;;;;10.48;5.20;;;17.30;80.00;;;18.07;45.83;97778.13;5090232;28;20067;-81
2023/01/16 01:38:52;;;;;;;8.93;5.80;;;17.30;79.80;;;17.99;45.96;97777.13;5094539;28;20551;-80
2023/01/16 01:41:18;;;;;;;13.02;5.22;;;17.20;79.50;;;17.98;45.85;97773.56;5079506;28;20045;-81
2023/01/16 01:43:55;;;;;;;11.25;6.30;;;17.20;79.50;;;17.99;45.79;97771.66;5077750;27;20039;-81
2023/01/16 01:46:26;;;;;;;9.10;5.63;;;17.20;79.60;;;17.97;45.85;97762.97;5077236;27;20401;-81
2023/01/16 01:49:03;;;;;;;11.30;5.53;;;17.10;79.80;;;17.97;45.61;97768.44;5113042;27;20054;-81
2023/01/16 01:51:37;;;;;;;11.85;5.97;;;17.10;79.70;;;17.96;45.91;97769.56;5085655;27;20459;-81
2023/01/16 01:54:07;;;;;;;16.88;5.95;;;17.20;79.50;;;17.93;45.86;97773.03;5079094;27;20105;-81
2023/01/16 01:57:02;;;;;;;7.03;4.72;;;17.20;79.60;;;18.02;46.17;97773.69;5101441;27;20454;-81
2023/01/16 01:59:37;;;;;;;10.68;5.57;;;17.20;80.00;;;18.03;46.02;97769.78;5080081;27;20047;-82
2023/01/16 02:02:04;;;;;;;8.63;5.57;;;17.20;80.10;;;17.93;45.73;97768.31;5083217;27;20036;-81
2023/01/16 02:04:32;;;;;;;11.40;6.03;;;17.20;79.60;;;17.93;46.07;97767.53;5099915;27;20031;-81
2023/01/16 02:07:02;;;;;;;11.43;4.88;;;17.20;79.70;;;17.89;45.83;97763.91;5066438;27;20035;-81
2023/01/16 02:09:28;;;;;;;10.27;6.07;;;17.10;79.80;;;17.92;45.86;97765.94;5082383;27;20059;-81
2023/01/16 02:11:57;;;;;;;12.55;5.57;;;17.10;79.80;;;17.92;45.87;97755.75;5066291;27;20769;-81
2023/01/16 02:14:23;;;;;;;6.90;4.38;;;17.10;79.70;;;17.92;45.65;97755.75;5096478;27;20035;-81
2023/01/16 02:20:09;;;;;;;22.98;5.22;;;17.10;79.50;;;17.87;45.99;97746.97;5091859;27;20141;-81
2023/01/16 02:23:06;;;;;;;10.63;5.72;;;17.10;79.60;;;17.89;45.74;97750.19;5114134;27;20071;-81
2023/01/16 02:26:17;;;;;;;11.60;6.43;;;17.10;79.60;;;17.86;45.82;97731.66;5115436;27;20050;-81
2023/01/16 02:29:35;;;;;;;7.03;4.88;;;17.10;79.30;;;17.88;45.68;97734.84;5076957;27;20517;-82
2023/01/16 02:32:24;;;;;;;9.35;5.93;;;17.00;79.30;;;17.88;45.68;97729.38;5116452;27;20073;-81
2023/01/16 02:35:16;;;;;;;14.00;6.15;;;17.00;79.40;;;17.87;45.64;97731.31;5094940;27;20045;-81
2023/01/16 02:38:14;;;;;;;8.60;5.40;;;17.00;79.50;;;17.85;45.65;97733.59;5131422;27;20023;-81
2023/01/16 02:41:14;;;;;;;8.48;5.22;;;17.00;79.50;;;17.80;45.61;97728.34;5100507;27;20057;-81
2023/01/16 02:44:23;;;;;;;11.27;5.85;;;17.00;79.40;;;17.81;45.79;97738.22;5115086;27;20380;-81
2023/01/16 02:47:14;;;;;;;9.25;5.57;;;16.90;79.50;;;17.79;45.66;97732.22;5102516;27;20046;-81
2023/01/16 02:50:20;;;;;;;11.25;5.90;;;16.90;79.60;;;17.77;45.65;97731.78;5128358;27;20039;-81
2023/01/16 02:53:01;;;;;;;11.40;6.45;;;16.90;79.60;;;17.81;45.68;97737.38;5130732;27;20126;-81
2023/01/16 02:55:37;;;;;;;10.32;6.03;;;16.90;79.50;;;17.78;45.44;97734.19;5132375;27;20039;-81
2023/01/16 02:58:05;;;;;;;11.93;5.40;;;16.90;79.50;;;17.80;45.57;97731.09;5090189;27;20035;-81
2023/01/16 03:00:31;;;;;;;8.35;5.13;;;16.90;79.40;;;17.83;45.29;97735.09;5080767;27;20047;-82
2023/01/16 03:02:58;;;;;;;9.77;6.03;;;16.90;79.20;;;17.84;45.41;97743.00;5095956;27;20046;-82
2023/01/16 03:05:25;;;;;;;8.82;5.07;;;16.90;79.30;;;17.77;45.53;97740.00;5080230;27;20470;-82
2023/01/16 03:08:06;;;;;;;11.75;6.32;;;16.90;79.30;;;17.77;45.71;97732.56;5077092;28;20355;-82
2023/01/16 03:10:49;;;;;;;9.27;5.82;;;16.90;79.30;;;17.76;45.49;97732.94;5095822;28;20075;-82
2023/01/16 03:13:31;;;;;;;8.80;4.90;;;16.90;79.40;;;17.78;45.41;97728.69;5095256;28;20031;-81
2023/01/16 03:16:24;;;;;;;10.20;5.68;;;16.90;79.30;;;17.76;45.49;97730.19;5111193;28;20078;-81
2023/01/16 03:19:35;;;;;;;11.48;6.43;;;16.90;79.40;;;17.82;45.84;97719.78;5106324;28;20535;-82
2023/01/16 03:22:09;;;;;;;8.98;6.05;;;16.90;79.80;;;17.83;45.48;97708.47;5051572;28;20617;-81
2023/01/16 03:25:38;;;;;;;8.32;5.53;;;16.90;79.80;;;17.82;45.78;97715.09;5102120;28;20128;-81
2023/01/16 03:28:29;;;;;;;8.77;5.35;;;16.90;79.60;;;17.81;45.88;97710.78;5098158;28;20047;-81
2023/01/16 03:31:15;;;;;;;7.03;5.13;;;16.90;79.50;;;17.80;45.56;97711.91;5094417;28;20048;-81
2023/01/16 03:34:31;;;;;;;7.20;4.90;;;16.90;79.50;;;17.84;45.55;97712.03;5092088;28;20039;-82
2023/01/16 03:37:59;;;;;;;8.93;5.63;;;17.00;79.50;;;17.80;45.78;97714.66;5065633;28;20087;-82
2023/01/16 03:40:28;;;;;;;10.15;5.88;;;17.00;79.30;;;17.87;45.56;97714.84;5106536;28;20079;-82
2023/01/16 03:43:02;;;;;;;8.27;5.40;;;16.90;79.40;;;17.91;45.38;97717.69;5088702;28;20089;-81
2023/01/16 03:45:49;;;;;;;8.93;5.13;;;17.00;79.30;;;17.95;45.24;97716.66;5090376;28;20044;-82
2023/01/16 03:48:20;;;;;;;7.88;4.57;;;17.00;79.40;;;18.01;45.47;97714.44;5060260;28;20047;-81
2023/01/16 03:51:15;;;;;;;9.52;5.22;;;17.00;79.70;;;17.98;45.51;97712.41;5106852;28;20031;-82
2023/01/16 03:53:49;;;;;;;12.18;5.55;;;17.00;79.70;;;18.03;45.46;97725.88;5092245;28;20063;-82
2023/01/16 03:56:23;;;;;;;8.43;5.28;;;17.00;79.40;;;18.09;45.01;97729.16;5095165;28;20044;-81
2023/01/16 03:58:50;;;;;;;11.02;6.13;;;17.10;79.40;;;18.10;45.07;97725.28;5071824;28;20115;-81
2023/01/16 04:01:33;;;;;;;6.88;5.20;;;17.10;79.40;;;18.12;45.33;97720.25;5071364;28;20082;-81
2023/01/16 04:04:22;;;;;;;11.15;5.63;;;17.10;79.30;;;18.11;45.32;97718.66;5108553;28;20060;-81
2023/01/16 04:07:01;;;;;;;10.50;5.90;;;17.10;79.80;;;18.11;45.55;97711.22;5106110;28;20039;-81
2023/01/16 04:09:41;;;;;;;8.88;5.22;;;17.10;79.90;;;18.14;45.24;97699.56;5095980;28;20360;-82
2023/01/16 04:12:07;;;;;;;8.10;5.13;;;17.10;79.40;;;18.18;45.11;97694.94;5094167;28;20122;-81
2023/01/16 04:14:34;;;;;;;7.20;5.20;;;17.10;79.30;;;18.20;44.95;97700.09;5076697;28;20043;-81
2023/01/16 04:17:00;;;;;;;9.00;5.47;;;17.20;79.30;;;18.15;44.99;97700.34;5060425;28;20061;-82
2023/01/16 04:19:26;;;;;;;8.93;5.13;;;17.20;79.30;;;18.20;45.16;97697.34;5069061;27;20485;-82
2023/01/16 04:21:52;;;;;;;9.35;5.68;;;17.20;79.50;;;18.19;45.12;97693.81;5073570;28;20122;-82
2023/01/16 04:24:18;;;;;;;10.13;5.75;;;17.20;79.50;;;18.21;45.12;97687.97;5093409;27;20047;-81
2023/01/16 04:26:44;;;;;;;9.10;5.90;;;17.20;79.30;;;18.22;45.05;97682.13;5089582;28;20046;-81
2023/01/16 04:29:11;;;;;;;9.45;5.25;;;17.30;79.30;;;18.23;45.14;97683.72;5075301;28;20051;-81
2023/01/16 04:31:37;;;;;;;6.82;4.53;;;17.30;79.20;;;18.25;44.91;97691.59;5074536;28;20061;-81
2023/01/16 04:34:03;;;;;;;9.55;5.10;;;17.30;79.20;;;18.24;45.00;97687.25;5074987;28;20046;-81
2023/01/16 04:36:30;;;;;;;7.80;5.05;;;17.30;79.20;;;18.31;45.13;97690.19;5076675;28;20044;-81
2023/01/16 04:38:57;;;;;;;7.93;4.85;;;17.30;79.30;;;18.31;45.29;97679.22;5090700;28;20117;-81
2023/01/16 04:41:35;;;;;;;11.50;4.95;;;17.40;79.70;;;18.31;45.16;97673.72;5052617;28;20035;-81
2023/01/16 04:44:04;;;;;;;7.38;4.78;;;17.30;79.50;;;18.33;44.93;97665.13;5080207;28;20107;-81
2023/01/16 04:46:30;;;;;;;9.88;5.88;;;17.40;79.30;;;18.32;44.85;97658.84;5076710;28;20403;-81
2023/01/16 04:48:56;;;;;;;7.20;5.03;;;17.40;79.10;;;18.34;44.70;97653.00;5075345;28;20070;-81
2023/01/16 04:51:22;;;;;;;8.85;5.63;;;17.30;79.10;;;18.37;45.04;97644.09;5093881;28;20039;-81
2023/01/16 04:53:48;;;;;;;7.70;5.10;;;17.40;79.60;;;18.35;45.01;97636.19;5071502;28;20729;-81
2023/01/16 04:56:14;;;;;;;8.23;5.30;;;17.40;79.40;;;18.38;45.15;97635.47;5059985;28;20092;-81
2023/01/16 04:58:41;;;;;;;7.65;4.28;;;17.40;79.40;;;18.39;44.91;97633.53;5090123;28;20040;-81
2023/01/16 05:01:06;;;;;;;8.80;5.22;;;17.40;79.20;;;18.38;45.02;97635.47;5071272;28;20539;-81
2023/01/16 05:03:33;;;;;;;13.73;5.93;;;17.40;79.20;;;18.39;44.98;97625.28;5056170;28;20039;-81
2023/01/16 05:05:59;;;;;;;8.85;5.05;;;17.50;79.10;;;18.38;44.91;97627.25;5071314;28;20061;-81
2023/01/16 05:08:27;;;;;;;7.55;5.28;;;17.50;79.10;;;18.40;44.89;97627.69;5077263;28;20059;-81
2023/01/16 05:10:53;;;;;;;5.38;4.03;;;17.50;79.00;;;18.43;44.69;97637.94;5107171;28;20044;-82
2023/01/16 05:13:20;;;;;;;7.13;5.07;;;17.40;78.90;;;18.40;44.61;97633.19;5060209;28;20043;-81
2023/01/16 05:15:46;;;;;;;8.50;5.10;;;17.40;79.00;;;18.40;44.68;97619.44;5074519;28;20043;-81
2023/01/16 05:18:13;;;;;;;6.30;3.97;;;17.40;79.00;;;18.43;44.69;97616.00;5049706;28;20082;-81
2023/01/16 05:20:39;;;;;;;6.60;4.35;;;17.40;78.80;;;18.47;44.73;97618.03;5073847;28;20060;-82
2023/01/16 05:23:07;;;;;;;6.30;4.60;;;17.40;79.70;;;18.43;44.73;97610.50;5077057;28;20036;-82
2023/01/16 05:25:33;;;;;;;7.90;4.53;;;17.50;79.80;;;18.40;44.81;97616.69;5087362;28;20381;-82
2023/01/16 05:28:00;;;;;;;8.43;4.60;;;17.40;79.10;;;18.43;45.00;97617.94;5090234;28;20043;-82
2023/01/16 05:30:26;;;;;;;7.78;4.80;;;17.50;79.30;;;18.42;45.20;97617.16;5093449;28;20100;-81
2023/01/16 05:32:53;;;;;;;7.82;5.05;;;17.50;79.40;;;18.42;44.83;97614.41;5071848;28;20039;-82
2023/01/16 05:35:19;;;;;;;4.95;3.83;;;17.40;79.10;;;18.46;44.87;97611.75;5061009;28;20035;-82
2023/01/16 05:37:46;;;;;;;10.68;4.93;;;17.50;79.40;;;18.47;44.78;97607.84;5077696;28;20496;-82
2023/01/16 05:40:12;;;;;;;6.15;4.45;;;17.40;79.10;;;18.43;44.74;97605.00;5104861;28;20063;-81
2023/01/16 05:42:41;;;;;;;6.82;4.55;;;17.40;79.00;;;18.43;44.86;97605.00;5079511;28;20043;-80
2023/01/16 05:45:08;;;;;;;6.88;4.90;;;17.50;79.00;;;18.43;44.75;97607.75;5076780;28;20036;-80
2023/01/16 05:47:34;;;;;;;5.47;4.45;;;17.40;78.80;;;18.42;44.48;97597.94;5092000;28;20071;-80
2023/01/16 05:50:00;;;;;;;9.35;5.85;;;17.50;78.90;;;18.46;44.64;97592.53;5110944;28;20043;-80
2023/01/16 05:52:26;;;;;;;6.75;5.30;;;17.50;78.90;;;18.43;44.73;97593.22;5056490;28;20069;-80
2023/01/16 05:54:53;;;;;;;6.03;4.55;;;17.40;78.90;;;18.41;44.73;97590.03;5094707;28;20585;-80
2023/01/16 05:57:20;;;;;;;7.10;5.15;;;17.50;78.90;;;18.42;44.86;97592.44;5060750;28;20047;-80
2023/01/16 05:59:50;;;;;;;6.07;4.68;;;17.40;78.80;;;18.44;44.59;97590.16;5108194;28;20032;-81
2023/01/16 06:02:20;;;;;;;6.15;4.43;;;17.50;78.90;;;18.43;44.99;97583.03;5088593;28;20036;-80
2023/01/16 06:04:46;;;;;;;8.32;4.07;;;17.50;79.10;;;18.43;45.00;97582.25;5090242;28;20069;-80
2023/01/16 06:07:12;;;;;;;9.27;5.75;;;17.50;79.30;;;18.44;44.88;97589.31;5075338;28;20043;-80
2023/01/16 06:09:38;;;;;;;6.80;4.93;;;17.50;79.30;;;18.45;44.92;97585.44;5096361;28;20046;-80
2023/01/16 06:12:07;;;;;;;6.97;4.65;;;17.50;79.20;;;18.44;44.71;97583.84;5098071;28;20035;-80
2023/01/16 06:14:34;;;;;;;6.00;4.70;;;17.40;78.90;;;18.43;44.93;97572.06;5098102;28;20097;-80
2023/01/16 06:17:00;;;;;;;9.60;5.35;;;17.50;79.10;;;18.40;45.10;97570.03;5090304;28;20083;-80
2023/01/16 06:19:26;;;;;;;7.95;5.18;;;17.40;79.00;;;18.43;45.10;97561.06;5078665;27;20039;-80
2023/01/16 06:21:53;;;;;;;7.68;5.00;;;17.50;79.40;;;18.42;45.16;97559.50;5073216;28;20038;-80
2023/01/16 06:24:19;;;;;;;6.90;4.10;;;17.50;79.60;;;18.41;45.11;97555.13;5093744;28;20055;-81
2023/01/16 06:26:45;;;;;;;5.25;3.95;;;17.40;79.30;;;18.43;45.02;97555.59;5095656;28;20724;-80
2023/01/16 06:29:11;;;;;;;9.30;4.72;;;17.40;79.20;;;18.43;45.03;97549.31;5078250;27;20043;-80
2023/01/16 06:31:37;;;;;;;8.02;5.00;;;17.40;79.10;;;18.44;44.94;97557.19;5064213;27;20072;-80
2023/01/16 06:34:03;;;;;;;8.57;5.50;;;17.40;79.10;;;18.40;44.73;97559.06;5106606;27;20039;-81
2023/01/16 06:36:30;;;;;;;7.05;4.82;;;17.50;79.00;;;18.46;44.80;97556.81;5080621;27;20161;-81
2023/01/16 06:38:56;;;;;;;8.50;5.15;;;17.40;79.10;;;18.41;44.84;97557.88;5104347;27;20035;-80
2023/01/16 06:41:22;;;;;;;8.45;5.65;;;17.40;79.00;;;18.43;44.67;97555.59;5078593;27;20478;-81
2023/01/16 06:43:48;;;;;;;7.57;4.68;;;17.40;79.00;;;18.39;45.28;97554.72;5097840;27;20039;-80
2023/01/16 06:46:14;;;;;;;9.30;5.20;;;17.40;79.40;;;18.39;44.99;97551.16;5096425;27;20468;-80
2023/01/16 06:48:41;;;;;;;9.52;6.63;;;17.40;79.80;;;18.42;45.29;97554.00;5094694;27;20059;-80
2023/01/16 06:51:09;;;;;;;10.38;5.20;;;17.40;79.70;;;18.43;45.01;97552.84;5108214;27;20039;-80
2023/01/16 06:53:36;;;;;;;9.20;6.15;;;17.40;79.50;;;18.41;44.95;97546.13;5105874;27;20062;-80
2023/01/16 06:56:03;;;;;;;15.43;6.32;;;17.40;79.60;;;18.44;44.87;97548.97;5064146;27;20046;-83
2023/01/16 06:58:29;;;;;;;11.95;6.30;;;17.40;79.40;;;18.48;44.69;97545.50;5097578;27;20168;-80
2023/01/16 07:00:55;;;;;;;10.75;6.53;;;17.40;79.50;;;18.45;44.80;97544.25;5115320;27;20043;-80
2023/01/16 07:03:22;;;;;;;11.38;6.60;;;17.30;79.40;;;18.46;44.79;97540.34;5095822;27;20035;-80
2023/01/16 07:05:48;;;;;;;13.70;6.90;;;17.30;79.30;;;18.46;44.54;97542.31;5059558;27;20043;-80
2023/01/16 07:08:14;;;;;;;16.60;7.35;;;17.30;79.30;;;18.46;44.53;97537.59;5076841;28;20051;-80
2023/01/16 07:10:40;;;;;;;18.45;8.82;;;17.30;79.40;;;18.42;44.96;97548.50;5095961;27;20095;-80
2023/01/16 07:13:06;;;;;;;21.67;9.13;;;17.30;79.50;;;18.41;45.21;97544.16;5129694;27;20043;-80
2023/01/16 07:24:32;;;;;;;20.55;9.55;;;17.40;79.60;;;18.42;44.73;97545.78;5098874;27;20486;-81
2023/01/16 07:27:00;;;;;;;17.63;9.07;;;17.30;79.40;;;18.44;44.75;97542.66;5087003;28;20193;-80
2023/01/16 07:29:27;;;;;;;26.35;9.75;;;17.30;79.40;;;18.45;44.87;97555.25;5038615;28;20083;-81
2023/01/16 07:31:53;;;;;;;23.15;10.10;;;17.30;79.30;;;18.44;44.68;97540.72;5071442;28;20051;-81
2023/01/16 07:34:19;;;;;;;20.45;8.68;;;17.30;79.40;;;18.46;44.69;97542.31;5053655;28;20121;-80
2023/01/16 07:36:45;;;;;;;21.15;10.35;;;17.30;79.50;;;18.44;44.74;97537.97;5036787;28;20056;-81
2023/01/16 07:39:11;;;;;;;24.27;9.40;;;17.30;79.40;;;18.44;44.67;97543.47;5054807;28;20551;-81
2023/01/16 07:41:37;;;;;;;30.27;12.48;;;17.30;79.20;;;18.43;44.40;97530.88;5053149;28;20134;-80
2023/01/16 07:44:03;;;;;;;22.77;11.15;;;17.30;79.10;;;18.43;44.53;97525.38;5055094;28;20075;-80
2023/01/16 07:46:30;;;;;;;25.08;10.63;;;17.30;79.20;;;18.46;44.50;97526.63;5087607;28;20056;-81
2023/01/16 07:48:56;;;;;;;20.17;10.18;;;17.30;79.10;;;18.43;44.73;97527.34;5071554;28;20449;-81
2023/01/16 07:51:23;;;;;;;24.45;11.27;;;17.30;79.20;;;18.47;44.24;97524.66;5051692;28;20043;-82
2023/01/16 07:53:49;;;;;;;21.33;11.52;;;17.30;79.10;;;18.44;44.58;97518.75;5039798;28;20056;-81
2023/01/16 07:56:15;;;;;;;27.35;12.20;;;17.30;79.20;;;18.43;44.64;97519.91;5039484;28;20070;-80
2023/01/16 07:58:42;;;;;;;21.23;10.10;;;17.30;79.10;;;18.44;44.58;97513.28;5087070;27;20471;-81
2023/01/16 08:01:09;;;;;;;25.48;10.93;;;17.30;79.10;;;18.43;44.40;97517.16;5094578;27;20035;-80
2023/01/16 08:03:36;;;;;;;26.73;12.00;;;17.30;79.00;;;18.47;44.43;97510.94;5109381;27;20150;-81
2023/01/16 08:06:03;;;;;;;26.77;10.98;;;17.30;79.10;;;18.44;44.39;97505.03;5078395;27;20103;-80
2023/01/16 08:08:30;;;;;;;23.67;10.75;;;17.30;79.00;;;18.44;44.18;97498.72;5076602;27;20051;-80
2023/01/16 08:10:57;;;;;;;22.88;10.82;;;17.40;78.90;;;18.48;44.24;97507.06;5073233;27;20065;-80
2023/01/16 08:13:24;;;;;;;23.17;12.60;;;17.30;79.00;;;18.43;44.48;97502.63;5078216;27;20035;-80
2023/01/16 08:15:50;;;;;;;26.08;11.45;;;17.30;78.90;;;18.42;44.43;97501.06;5081378;27;20482;-80
2023/01/16 08:18:20;;;;;;;27.15;11.48;;;17.30;78.90;;;18.46;44.25;97488.19;5063170;27;20556;-80
2023/01/16 08:20:46;;;;;;;24.63;11.25;;;17.30;78.90;;;18.43;44.24;97489.69;5096191;27;20049;-80
2023/01/16 08:23:12;;;;;;;24.23;12.50;;;17.30;78.90;;;18.47;44.44;97475.25;5078585;27;20035;-80
2023/01/16 08:25:39;;;;;;;27.05;11.98;;;17.30;78.90;;;18.44;44.34;97465.78;5078504;27;20046;-80
2023/01/16 08:28:05;;;;;;;24.70;10.35;;;17.30;78.80;;;18.46;44.30;97462.69;5059336;27;20043;-82
2023/01/16 08:30:31;;;;;;;25.17;10.60;;;17.30;78.90;;;18.46;44.16;97460.72;5092830;27;20043;-80
2023/01/16 08:32:58;;;;;;;26.35;12.20;;;17.30;78.70;;;18.47;44.26;97461.53;5074842;27;20036;-77
2023/01/16 08:35:25;;;;;;;26.88;11.98;;;17.30;78.70;;;18.47;44.19;97454.09;5060314;27;20074;-77
2023/01/16 08:37:51;;;;;;;34.58;13.75;;;17.30;78.80;;;18.46;44.56;97449.75;5087867;27;20089;-77
2023/01/16 08:40:17;;;;;;;27.20;12.07;;;17.30;79.00;;;18.52;44.48;97442.03;5106342;27;20032;-77
2023/01/16 08:53:47;;;;;;;22.90;11.38;;;17.30;78.90;;;18.50;44.14;97439.66;5079506;27;20043;-77
2023/01/16 08:56:13;;;;;;;21.33;11.77;;;17.40;78.80;;;18.52;44.25;97442.03;5089428;27;20068;-77
2023/01/16 08:58:39;;;;;;;26.63;11.60;;;17.40;78.70;;;18.51;44.19;97426.72;5089531;27;20047;-78
2023/01/16 09:01:05;;;;;;;31.65;14.32;;;17.40;78.70;;;18.53;44.09;97418.91;5071982;27;20043;-78
2023/01/16 09:03:33;;;;;;;34.85;12.23;;;17.40;78.80;;;18.53;44.12;97421.66;5086425;27;20526;-78
2023/01/16 09:06:00;;;;;;;23.35;12.38;;;17.40;78.80;;;18.53;44.19;97413.41;5084652;28;20061;-78
2023/01/16 09:08:26;;;;;;;28.42;13.13;;;17.40;78.70;;;18.53;44.19;97414.22;5105092;27;20104;-78
2023/01/16 09:13:49;;;;;;;28.98;13.05;;;17.40;78.20;;;18.54;43.93;97399.31;5097586;27;20121;-78
2023/01/16 09:16:20;;;;;;;25.35;11.68;;;17.40;78.30;;;18.49;44.13;97388.63;5090767;27;20050;-78
2023/01/16 09:18:46;;;;;;;35.17;14.52;;;17.40;78.30;;;18.52;44.00;97387.91;5087727;27;20035;-78
2023/01/16 09:21:13;;;;;;;26.02;13.15;;;17.40;78.30;;;18.51;44.22;97377.28;5093939;28;20031;-78
2023/01/16 09:23:39;;;;;;;26.75;12.05;;;17.40;78.60;;;18.53;44.07;97366.75;5088687;28;20033;-78
2023/01/16 09:26:08;;;;;;;24.20;13.13;;;17.40;78.70;;;18.54;44.05;97369.09;5109359;27;20039;-78
2023/01/16 09:28:34;;;;;;;24.02;11.82;;;17.40;78.60;;;18.58;43.95;97363.72;5077379;27;20814;-77
2023/01/16 09:31:00;;;;;;;27.48;12.82;;;17.40;78.40;;;18.56;43.91;97358.56;5111760;27;20455;-78
2023/01/16 09:33:26;;;;;;;25.35;12.48;;;17.40;78.30;;;18.57;43.80;97356.59;5078384;27;20051;-78
2023/01/16 09:35:53;;;;;;;29.13;13.48;;;17.40;78.30;;;18.58;44.12;97347.22;5108520;28;20031;-78
2023/01/16 09:38:20;;;;;;;27.67;13.38;;;17.40;78.50;;;18.57;44.17;97334.63;5091930;28;20042;-78
2023/01/16 09:40:49;;;;;;;27.70;13.90;;;17.50;78.70;;;18.57;44.07;97323.66;5054604;28;20039;-78
2023/01/16 09:43:38;;;;;;;22.23;11.75;;;17.50;78.80;;;18.57;43.96;97315.41;5072908;28;20043;-77
2023/01/16 09:46:15;;;;;;;34.45;14.73;;;17.40;78.50;;;18.58;43.95;97311.53;5102586;28;20113;-77
2023/01/16 09:49:02;;;;;;;32.03;14.00;;;17.50;78.50;;;18.57;43.86;97308.00;5073194;28;20047;-77
2023/01/16 09:51:39;;;;;;;25.10;13.70;;;17.40;78.20;;;18.55;43.69;97298.53;5106856;28;20861;-77
2023/01/16 09:59:54;;;;;;;30.58;14.95;;;17.40;78.70;;;18.57;44.21;97279.72;5073843;28;20089;-77
2023/01/16 10:02:33;;;;;;;27.05;11.93;;;17.50;78.60;;;18.58;44.03;97276.63;5087516;28;20369;-77
2023/01/16 10:05:02;;;;;;;27.25;13.73;;;17.50;78.60;;;18.62;43.89;97273.94;5086911;27;20035;-77
2023/01/16 10:08:05;;;;;;;31.85;15.25;;;17.50;78.40;;;18.63;43.79;97267.31;5056724;27;20066;-77
2023/01/16 10:10:46;;;;;;;26.73;12.27;;;17.50;78.30;;;18.62;44.19;97269.25;5126797;27;20040;-77
2023/01/16 10:13:50;;;;;;;25.08;13.18;;;17.50;78.60;;;18.63;44.19;97264.56;5098170;27;20035;-77
2023/01/16 10:16:38;;;;;;;27.38;13.60;;;17.50;78.60;;;18.65;44.08;97265.00;5113599;27;20485;-77
2023/01/16 10:19:41;;;;;;;28.95;13.38;;;17.50;78.40;;;18.66;44.06;97247.34;5107073;27;20546;-77
2023/01/16 10:22:39;;;;;;;22.83;12.73;;;17.60;78.50;;;18.69;43.85;97243.88;5127196;27;20036;-77
2023/01/16 10:25:30;;;;;;;28.85;13.27;;;17.50;78.30;;;18.70;43.94;97233.66;5109989;27;20494;-77
2023/01/16 10:28:26;;;;;;;23.58;12.02;;;17.50;78.30;;;18.68;44.08;97227.75;5079886;27;20156;-77
2023/01/16 10:31:16;;;;;;;25.02;13.88;;;17.60;78.60;;;18.68;44.32;97220.31;5101455;27;20032;-77
2023/01/16 10:33:46;;;;;;;30.10;13.98;;;17.60;78.60;;;18.66;43.99;97215.16;5110711;27;20048;-77
2023/01/16 10:36:14;;;;;;;20.37;11.50;;;17.60;78.40;;;18.66;44.00;97211.63;5091708;27;20043;-77
2023/01/16 10:38:43;;;;;;;31.35;14.05;;;17.60;78.20;;;18.69;44.02;97202.66;5089095;27;20044;-77
2023/01/16 10:49:56;;;;;;;192.55;54.53;;;17.60;78.20;;;18.76;49.42;97167.13;5095132;27;20054;-78
2023/01/16 10:52:24;;;;;;;306.48;80.32;;;17.70;85.40;;;18.97;51.70;97154.88;5092929;27;20043;-78
2023/01/16 10:54:52;;;;;;;285.33;78.43;;;17.80;88.70;;;19.17;51.73;97150.88;5094113;27;20114;-78
2023/01/16 10:57:19;;;;;;;287.90;88.15;;;17.90;88.90;;;19.26;51.72;97148.66;5094170;27;20039;-78
2023/01/16 10:59:46;;;;;;;288.42;84.50;;;18.00;89.00;;;19.25;51.90;97147.06;5074802;27;20046;-78
2023/01/16 11:02:42;;;;;;;277.60;84.60;;;18.00;88.90;;;19.31;51.82;97139.31;5080170;27;20379;-78
2023/01/16 11:05:33;;;;;;;270.65;79.30;;;18.10;88.80;;;19.36;51.71;97124.41;5082718;27;20051;-78
2023/01/16 11:08:16;;;;;;;316.55;84.10;;;18.10;88.60;;;19.41;51.59;97119.41;5077275;27;20546;-78
2023/01/16 11:10:45;;;;;;;271.77;79.63;;;18.20;88.30;;;19.42;51.51;97112.72;5095312;27;20344;-78
2023/01/16 11:19:22;;;;;;;257.02;74.13;;;18.20;88.20;;;19.43;51.35;97086.81;5127099;27;20039;-78